createdAt,value
2018-11-02T00:02:14.382Z,2.67
2018-11-02T00:04:42.655Z,2.03
2018-11-02T00:07:10.934Z,1.50
2018-11-02T00:09:39.194Z,3.13
2018-11-02T00:12:07.442Z,2.10
2018-11-02T00:14:35.661Z,3.33
2018-11-02T00:17:03.972Z,1.73
2018-11-02T00:19:34.592Z,1.50
2018-11-02T00:22:04.854Z,2.17
2018-11-02T00:24:33.072Z,1.93
2018-11-02T00:27:01.704Z,1.83
2018-11-02T00:29:31.261Z,1.37
2018-11-02T00:31:59.752Z,1.63
2018-11-02T00:34:28.018Z,1.30
2018-11-02T00:36:56.293Z,2.53
2018-11-02T00:39:24.494Z,1.40
2018-11-02T00:41:52.744Z,2.57
2018-11-02T00:44:20.986Z,1.40
2018-11-02T00:46:49.193Z,2.07
2018-11-02T00:49:17.397Z,2.07
2018-11-02T00:51:45.650Z,3.27
2018-11-02T00:54:13.931Z,2.40
2018-11-02T00:56:42.166Z,2.07
2018-11-02T00:59:10.442Z,2.13
2018-11-02T01:01:38.645Z,2.30
2018-11-02T01:04:06.922Z,2.27
2018-11-02T01:06:35.225Z,1.80
2018-11-02T01:09:03.384Z,1.20
2018-11-02T01:11:31.652Z,1.60
2018-11-02T01:13:59.846Z,2.80
2018-11-02T01:16:28.086Z,1.53
2018-11-02T01:18:56.238Z,1.50
2018-11-02T01:21:24.511Z,1.77
2018-11-02T01:23:52.700Z,1.90
2018-11-02T01:26:20.921Z,2.33
2018-11-02T01:28:49.229Z,3.10
2018-11-02T01:31:17.507Z,3.03
2018-11-02T01:33:45.689Z,1.93
2018-11-02T01:36:13.906Z,1.53
2018-11-02T01:38:42.134Z,1.77
2018-11-02T01:41:10.342Z,3.43
2018-11-02T01:43:38.521Z,2.00
2018-11-02T01:46:06.813Z,2.20
2018-11-02T01:48:34.987Z,2.93
2018-11-02T01:51:03.159Z,2.00
2018-11-02T01:53:31.440Z,1.97
2018-11-02T01:55:59.694Z,3.63
2018-11-02T01:58:27.902Z,1.70
2018-11-02T02:00:56.090Z,3.27
2018-11-02T02:03:24.310Z,3.70
2018-11-02T02:05:52.561Z,3.73
2018-11-02T02:08:20.796Z,2.00
2018-11-02T02:10:49.011Z,2.97
2018-11-02T02:13:17.270Z,2.43
2018-11-02T02:15:45.411Z,1.80
2018-11-02T02:18:13.636Z,4.20
2018-11-02T02:20:41.811Z,3.27
2018-11-02T02:23:10.002Z,2.30
2018-11-02T02:25:38.187Z,2.07
2018-11-02T02:28:06.398Z,2.90
2018-11-02T02:30:34.642Z,2.40
2018-11-02T02:33:02.862Z,2.43
2018-11-02T02:35:31.059Z,2.17
2018-11-02T02:37:59.289Z,3.13
2018-11-02T02:40:27.537Z,2.47
2018-11-02T02:42:55.824Z,2.70
2018-11-02T02:45:24.042Z,3.83
2018-11-02T02:47:52.262Z,2.17
2018-11-02T02:50:20.565Z,2.80
2018-11-02T02:52:48.712Z,3.87
2018-11-02T02:55:16.903Z,4.33
2018-11-02T02:57:45.113Z,3.13
2018-11-02T03:00:14.291Z,2.33
2018-11-02T03:02:43.101Z,2.37
2018-11-02T03:05:11.579Z,2.47
2018-11-02T03:07:40.371Z,2.40
2018-11-02T03:10:09.059Z,3.03
2018-11-02T03:12:37.537Z,3.80
2018-11-02T03:15:05.993Z,2.73
2018-11-02T03:17:34.262Z,3.27
2018-11-02T03:20:02.506Z,4.27
2018-11-02T03:22:30.833Z,2.27
2018-11-02T03:24:58.979Z,2.43
2018-11-02T03:27:27.244Z,3.97
2018-11-02T03:29:55.434Z,4.30
2018-11-02T03:32:23.706Z,2.97
2018-11-02T03:34:51.902Z,3.53
2018-11-02T03:37:20.146Z,4.30
2018-11-02T03:39:48.364Z,3.40
2018-11-02T03:42:16.609Z,2.40
2018-11-02T03:44:44.802Z,2.73
2018-11-02T03:47:13.048Z,3.03
2018-11-02T03:49:41.316Z,3.73
2018-11-02T03:52:09.905Z,3.70
2018-11-02T03:54:38.103Z,2.67
2018-11-02T03:57:06.306Z,2.43
2018-11-02T03:59:34.576Z,3.47
2018-11-02T04:02:02.801Z,3.30
2018-11-02T04:04:30.976Z,6.03
2018-11-02T04:06:59.301Z,4.90
2018-11-02T04:09:27.563Z,3.07
2018-11-02T04:11:55.785Z,3.53
2018-11-02T04:14:23.981Z,4.07
2018-11-02T04:16:52.190Z,3.43
2018-11-02T04:19:20.421Z,4.13
2018-11-02T04:21:49.156Z,2.93
2018-11-02T04:24:17.393Z,3.27
2018-11-02T04:26:45.588Z,5.77
2018-11-02T04:29:14.951Z,3.63
2018-11-02T04:31:44.010Z,2.80
2018-11-02T04:34:13.094Z,3.83
2018-11-02T04:36:41.324Z,3.50
2018-11-02T04:39:12.655Z,4.53
2018-11-02T04:41:40.912Z,3.63
2018-11-02T04:44:10.129Z,3.40
2018-11-02T04:46:38.702Z,4.47
2018-11-02T04:49:07.584Z,5.23
2018-11-02T04:51:35.805Z,5.60
2018-11-02T04:54:04.044Z,5.67
2018-11-02T04:56:32.252Z,5.57
2018-11-02T04:59:00.578Z,4.10
2018-11-02T05:01:28.771Z,3.77
2018-11-02T05:03:57.036Z,4.17
2018-11-02T05:06:25.351Z,5.73
2018-11-02T05:08:53.590Z,5.47
2018-11-02T05:11:21.894Z,6.13
2018-11-02T05:13:50.036Z,5.13
2018-11-02T05:16:18.235Z,4.43
2018-11-02T05:18:46.453Z,4.63
2018-11-02T05:21:14.774Z,4.27
2018-11-02T05:23:42.918Z,4.57
2018-11-02T05:26:11.158Z,4.17
2018-11-02T05:28:39.371Z,4.30
2018-11-02T05:31:07.657Z,4.87
2018-11-02T05:33:35.911Z,6.57
2018-11-02T05:36:04.478Z,5.97
2018-11-02T05:38:32.719Z,7.93
2018-11-02T05:41:00.952Z,8.50
2018-11-02T05:43:29.146Z,8.23
2018-11-02T05:45:57.320Z,8.37
2018-11-02T05:48:25.570Z,6.53
2018-11-02T05:50:53.777Z,7.40
2018-11-02T05:53:22.034Z,6.70
2018-11-02T05:55:50.289Z,6.43
2018-11-02T05:58:18.548Z,5.90
2018-11-02T06:00:46.752Z,6.60
2018-11-02T06:03:14.949Z,6.00
2018-11-02T06:05:43.197Z,7.03
2018-11-02T06:08:11.406Z,6.73
2018-11-02T06:10:39.626Z,5.80
2018-11-02T06:13:07.811Z,5.33
2018-11-02T06:15:36.134Z,4.63
2018-11-02T06:18:04.335Z,4.83
2018-11-02T06:20:32.556Z,5.30
2018-11-02T06:23:00.853Z,6.03
2018-11-02T06:25:29.079Z,6.53
2018-11-02T06:27:57.313Z,6.33
2018-11-02T06:30:25.516Z,6.27
2018-11-02T06:32:53.729Z,5.60
2018-11-02T06:35:21.939Z,7.20
2018-11-02T06:37:50.194Z,4.33
2018-11-02T06:40:18.412Z,5.43
2018-11-02T06:42:46.603Z,6.13
2018-11-02T06:45:14.879Z,7.27
2018-11-02T06:47:43.074Z,4.53
2018-11-02T06:50:11.331Z,6.27
2018-11-02T06:52:39.628Z,6.10
2018-11-02T06:55:08.564Z,6.50
2018-11-02T06:57:36.832Z,5.23
2018-11-02T07:00:09.009Z,5.17
2018-11-02T07:02:37.038Z,6.43
2018-11-02T07:05:05.242Z,5.20
2018-11-02T07:07:33.454Z,5.53
2018-11-02T07:10:01.812Z,4.93
2018-11-02T07:12:30.043Z,6.57
2018-11-02T07:14:58.257Z,7.77
2018-11-02T07:17:26.510Z,6.20
2018-11-02T07:19:55.163Z,7.23
2018-11-02T07:22:23.382Z,6.93
2018-11-02T07:24:51.585Z,5.73
2018-11-02T07:27:19.823Z,5.47
2018-11-02T07:29:48.014Z,5.80
2018-11-02T07:32:16.202Z,5.97
2018-11-02T07:34:44.373Z,5.97
2018-11-02T07:37:12.581Z,5.03
2018-11-02T07:39:40.819Z,5.20
2018-11-02T07:42:09.034Z,6.37
2018-11-02T07:44:37.293Z,4.03
2018-11-02T07:47:05.518Z,5.67
2018-11-02T07:49:33.782Z,4.17
2018-11-02T07:52:01.941Z,4.73
2018-11-02T07:54:30.148Z,3.80
2018-11-02T07:56:58.389Z,4.37
2018-11-02T07:59:26.666Z,3.50
2018-11-02T08:01:55.008Z,6.00
2018-11-02T08:04:23.095Z,5.60
2018-11-02T08:06:51.353Z,5.07
2018-11-02T08:09:19.535Z,4.57
2018-11-02T08:11:47.770Z,6.53
2018-11-02T08:14:15.962Z,7.93
2018-11-02T08:16:44.157Z,4.97
2018-11-02T08:19:12.394Z,6.10
2018-11-02T08:21:40.670Z,4.20
2018-11-02T08:24:08.863Z,4.43
2018-11-02T08:26:37.053Z,5.40
2018-11-02T08:29:05.335Z,5.20
2018-11-02T08:31:33.521Z,5.00
2018-11-02T08:34:01.774Z,6.63
2018-11-02T08:36:29.941Z,5.27
2018-11-02T08:38:58.213Z,6.00
2018-11-02T08:41:26.409Z,4.20
2018-11-02T08:43:54.673Z,4.47
2018-11-02T08:46:22.934Z,6.07
2018-11-02T08:48:51.206Z,6.13
2018-11-02T08:51:19.458Z,4.67
2018-11-02T08:53:47.687Z,4.53
2018-11-02T08:56:15.900Z,6.30
2018-11-02T08:58:44.400Z,5.27
2018-11-02T09:01:12.311Z,4.23
2018-11-02T09:03:40.598Z,3.67
2018-11-02T09:06:08.890Z,6.97
2018-11-02T09:08:37.895Z,11.57
2018-11-02T09:11:06.193Z,4.57
2018-11-02T09:13:34.398Z,5.83
2018-11-02T09:16:02.656Z,7.30
2018-11-02T09:18:31.057Z,6.70
2018-11-02T09:20:59.177Z,4.27
2018-11-02T09:23:27.402Z,4.87
2018-11-02T09:25:55.680Z,5.43
2018-11-02T09:28:23.904Z,5.43
2018-11-02T09:30:52.163Z,4.50
2018-11-02T09:33:20.410Z,4.70
2018-11-02T09:35:48.631Z,4.17
2018-11-02T09:38:16.826Z,3.83
2018-11-02T09:40:45.017Z,3.90
2018-11-02T09:43:13.222Z,3.53
2018-11-02T09:45:41.535Z,4.50
2018-11-02T09:48:09.789Z,2.30
2018-11-02T09:50:38.026Z,2.60
2018-11-02T09:53:06.264Z,4.10
2018-11-02T09:55:34.590Z,3.83
2018-11-02T09:58:02.854Z,4.17
2018-11-02T10:00:31.094Z,2.43
2018-11-02T10:02:59.302Z,2.27
2018-11-02T10:05:27.553Z,10.57
2018-11-02T10:07:55.754Z,3.57
2018-11-02T10:10:24.027Z,3.07
2018-11-02T10:12:52.219Z,4.37
2018-11-02T10:15:20.531Z,3.17
2018-11-02T10:17:48.793Z,2.13
2018-11-02T10:20:17.063Z,4.30
2018-11-02T10:22:45.430Z,2.20
2018-11-02T10:25:13.600Z,3.77
2018-11-02T10:27:42.686Z,3.70
2018-11-02T10:30:12.489Z,3.67
2018-11-02T10:32:41.504Z,1.90
2018-11-02T10:35:09.874Z,2.90
2018-11-02T10:37:38.537Z,3.33
2018-11-02T10:40:09.607Z,2.77
2018-11-02T10:42:37.934Z,2.23
2018-11-02T10:45:06.348Z,2.37
2018-11-02T10:47:34.450Z,2.60
2018-11-02T10:50:02.626Z,4.00
2018-11-02T10:52:30.847Z,3.67
2018-11-02T10:54:59.054Z,3.27
2018-11-02T10:57:27.310Z,4.80
2018-11-02T10:59:55.515Z,2.00
2018-11-02T11:02:23.719Z,2.63
2018-11-02T11:04:52.038Z,3.10
2018-11-02T11:07:20.240Z,2.97
2018-11-02T11:09:48.473Z,4.80
2018-11-02T11:12:16.787Z,3.47
2018-11-02T11:14:44.960Z,2.53
2018-11-02T11:17:13.201Z,3.20
2018-11-02T11:19:41.428Z,4.57
2018-11-02T11:22:09.700Z,2.63
2018-11-02T11:24:37.966Z,2.27
2018-11-02T11:27:06.214Z,2.47
2018-11-02T11:29:34.498Z,3.23
2018-11-02T11:32:02.707Z,3.60
2018-11-02T11:34:30.965Z,3.80
2018-11-02T11:36:59.269Z,4.20
2018-11-02T11:39:27.568Z,3.27
2018-11-02T11:41:55.711Z,3.67
2018-11-02T11:44:23.957Z,4.73
2018-11-02T11:46:52.181Z,3.50
2018-11-02T11:49:20.460Z,3.20
2018-11-02T11:51:48.714Z,4.93
2018-11-02T11:54:17.017Z,4.33
2018-11-02T11:56:45.166Z,4.60
2018-11-02T11:59:13.422Z,2.83
2018-11-02T12:01:41.718Z,2.90
2018-11-02T12:04:09.985Z,6.57
2018-11-02T12:06:38.178Z,2.37
2018-11-02T12:09:07.251Z,5.03
2018-11-02T12:11:35.513Z,4.33
2018-11-02T12:14:03.769Z,3.20
2018-11-02T12:16:32.098Z,3.57
2018-11-02T12:19:00.356Z,5.87
2018-11-02T12:21:28.649Z,4.10
2018-11-02T12:23:56.922Z,3.90
2018-11-02T12:26:25.170Z,3.10
2018-11-02T12:28:53.452Z,2.50
2018-11-02T12:31:21.615Z,2.53
2018-11-02T12:33:49.822Z,2.87
2018-11-02T12:36:18.050Z,4.97
2018-11-02T12:38:46.282Z,4.30
2018-11-02T12:41:14.573Z,3.07
2018-11-02T12:43:43.094Z,3.40
2018-11-02T12:46:11.275Z,3.57
2018-11-02T12:48:39.717Z,3.00
2018-11-02T12:51:07.830Z,3.73
2018-11-02T12:53:36.138Z,5.03
2018-11-02T12:56:04.427Z,3.83
2018-11-02T12:58:32.696Z,4.00
2018-11-02T13:01:00.945Z,3.03
2018-11-02T13:03:29.169Z,4.00
2018-11-02T13:05:57.399Z,3.97
2018-11-02T13:08:25.595Z,4.47
2018-11-02T13:10:53.840Z,4.97
2018-11-02T13:13:22.160Z,8.47
2018-11-02T13:15:50.470Z,4.60
2018-11-02T13:18:20.147Z,4.83
2018-11-02T13:20:48.427Z,5.27
2018-11-02T13:23:16.641Z,5.23
2018-11-02T13:25:44.941Z,5.80
2018-11-02T13:28:13.048Z,5.90
2018-11-02T13:30:41.350Z,5.73
2018-11-02T13:33:09.459Z,6.73
2018-11-02T13:35:37.646Z,6.80
2018-11-02T13:38:05.830Z,4.80
2018-11-02T13:40:34.006Z,6.07
2018-11-02T13:43:02.337Z,6.27
2018-11-02T13:45:30.544Z,7.47
2018-11-02T13:47:58.820Z,5.13
2018-11-02T13:50:27.151Z,5.50
2018-11-02T13:52:55.255Z,6.70
2018-11-02T13:55:23.506Z,6.67
2018-11-02T13:57:51.723Z,6.57
2018-11-02T14:00:19.980Z,10.03
2018-11-02T14:02:48.281Z,5.83
2018-11-02T14:05:17.215Z,6.50
2018-11-02T14:07:45.452Z,5.90
2018-11-02T14:10:13.927Z,5.33
2018-11-02T14:12:42.224Z,7.47
2018-11-02T14:15:12.017Z,5.47
2018-11-02T14:17:40.599Z,5.40
2018-11-02T14:20:09.843Z,7.40
2018-11-02T14:22:38.170Z,6.53
2018-11-02T14:25:07.714Z,5.43
2018-11-02T14:27:36.159Z,5.70
2018-11-02T14:30:05.142Z,6.17
2018-11-02T14:32:33.414Z,4.50
2018-11-02T14:35:01.607Z,6.87
2018-11-02T14:37:29.883Z,6.00
2018-11-02T14:39:58.151Z,5.17
2018-11-02T14:42:26.345Z,4.77
2018-11-02T14:44:54.605Z,5.30
2018-11-02T14:47:22.886Z,5.00
2018-11-02T14:49:51.130Z,5.27
2018-11-02T14:52:19.343Z,5.23
2018-11-02T14:54:47.558Z,4.37
2018-11-02T14:57:15.755Z,4.47
2018-11-02T14:59:43.986Z,4.33
2018-11-02T15:02:12.266Z,5.10
2018-11-02T15:04:40.590Z,7.77
2018-11-02T15:07:08.792Z,4.97
2018-11-02T15:09:37.122Z,6.63
2018-11-02T15:12:05.522Z,6.13
2018-11-02T15:14:33.855Z,7.43
2018-11-02T15:17:02.195Z,4.97
2018-11-02T15:19:30.421Z,6.07
2018-11-02T15:21:58.623Z,4.87
2018-11-02T15:24:26.817Z,9.17
2018-11-02T15:26:55.072Z,5.43
2018-11-02T15:29:23.281Z,6.27
2018-11-02T15:31:51.457Z,8.07
2018-11-02T15:34:19.826Z,4.20
2018-11-02T15:36:48.059Z,5.00
2018-11-02T15:39:16.289Z,5.83
2018-11-02T15:41:44.492Z,5.07
2018-11-02T15:44:12.802Z,6.27
2018-11-02T15:46:40.946Z,5.47
2018-11-02T15:49:09.173Z,10.47
2018-11-02T15:51:37.490Z,6.17
2018-11-02T15:54:06.063Z,7.00
2018-11-02T15:56:34.314Z,6.17
2018-11-02T15:59:02.585Z,6.30
2018-11-02T16:01:30.762Z,30.60
2018-11-02T16:03:59.052Z,26.53
2018-11-02T16:06:27.375Z,32.43
2018-11-02T16:08:55.606Z,12.07
2018-11-02T16:11:23.846Z,12.97
2018-11-02T16:13:52.053Z,11.67
2018-11-02T16:16:20.385Z,6.67
2018-11-02T16:18:48.636Z,15.40
2018-11-02T16:21:16.882Z,9.80
2018-11-02T16:23:45.230Z,5.30
2018-11-02T16:26:13.431Z,4.97
2018-11-02T16:28:41.707Z,5.13
2018-11-02T16:31:09.923Z,7.20
2018-11-02T16:33:38.159Z,15.57
2018-11-02T16:36:06.374Z,68.40
2018-11-02T16:38:34.621Z,50.17
2018-11-02T16:41:02.967Z,20.67
2018-11-02T16:43:31.245Z,6.17
2018-11-02T16:45:59.412Z,11.30
2018-11-02T16:48:27.625Z,6.77
2018-11-02T16:50:55.863Z,8.87
2018-11-02T16:53:24.770Z,7.37
2018-11-02T16:55:52.985Z,6.47
2018-11-02T16:58:21.217Z,6.30
2018-11-02T17:00:49.454Z,5.43
2018-11-02T17:03:17.674Z,6.63
2018-11-02T17:05:45.951Z,5.40
2018-11-02T17:08:14.179Z,7.40
2018-11-02T17:10:42.407Z,7.43
2018-11-02T17:13:10.603Z,6.17
2018-11-02T17:15:38.803Z,3.90
2018-11-02T17:18:07.070Z,15.60
2018-11-02T17:20:35.252Z,86.90
2018-11-02T17:23:03.465Z,31.23
2018-11-02T17:25:31.696Z,28.87
2018-11-02T17:27:59.880Z,12.93
2018-11-02T17:30:28.118Z,5.83
2018-11-02T17:32:56.447Z,6.63
2018-11-02T17:35:24.694Z,4.90
2018-11-02T17:37:52.923Z,5.60
2018-11-02T17:40:21.147Z,5.27
2018-11-02T17:42:49.335Z,6.73
2018-11-02T17:45:17.630Z,5.73
2018-11-02T17:47:45.963Z,4.27
2018-11-02T17:50:14.945Z,4.20
2018-11-02T17:52:43.325Z,4.27
2018-11-02T17:55:11.630Z,6.27
2018-11-02T17:57:39.844Z,4.63
2018-11-02T18:00:09.694Z,4.57
2018-11-02T18:02:37.892Z,5.03
2018-11-02T18:05:06.557Z,4.60
2018-11-02T18:07:34.826Z,4.13
2018-11-02T18:10:03.018Z,4.60
2018-11-02T18:12:31.206Z,3.63
2018-11-02T18:14:59.468Z,3.97
2018-11-02T18:17:27.659Z,4.07
2018-11-02T18:19:55.899Z,5.43
2018-11-02T18:22:24.166Z,4.83
2018-11-02T18:24:52.343Z,4.57
2018-11-02T18:27:20.570Z,4.00
2018-11-02T18:29:48.800Z,5.07
2018-11-02T18:32:17.024Z,4.10
2018-11-02T18:34:45.325Z,3.90
2018-11-02T18:37:13.499Z,6.20
2018-11-02T18:39:41.736Z,5.47
2018-11-02T18:42:09.974Z,5.13
2018-11-02T18:44:38.174Z,6.37
2018-11-02T18:47:06.370Z,4.93
2018-11-02T18:49:34.559Z,5.20
2018-11-02T18:52:02.762Z,6.57
2018-11-02T18:54:31.108Z,6.37
2018-11-02T18:56:59.427Z,5.10
2018-11-02T18:59:27.623Z,5.13
2018-11-02T19:01:55.858Z,5.27
2018-11-02T19:04:24.116Z,5.13
2018-11-02T19:06:52.306Z,5.70
2018-11-02T19:09:20.626Z,5.77
2018-11-02T19:11:48.834Z,5.53
2018-11-02T19:14:17.034Z,7.83
2018-11-02T19:16:45.250Z,4.83
2018-11-02T19:19:13.451Z,5.13
2018-11-02T19:21:41.685Z,5.70
2018-11-02T19:24:09.914Z,7.03
2018-11-02T19:26:38.150Z,5.73
2018-11-02T19:29:06.344Z,6.13
2018-11-02T19:31:34.556Z,8.53
2018-11-02T19:34:02.859Z,5.37
2018-11-02T19:36:30.969Z,6.30
2018-11-02T19:38:59.176Z,6.30
2018-11-02T19:41:27.422Z,7.10
2018-11-02T19:43:55.744Z,6.87
2018-11-02T19:46:23.974Z,6.13
2018-11-02T19:48:52.186Z,7.23
2018-11-02T19:51:20.400Z,16.87
2018-11-02T19:53:48.615Z,10.30
2018-11-02T19:56:16.852Z,6.27
2018-11-02T19:58:45.066Z,7.77
2018-11-02T20:01:13.338Z,8.57
2018-11-02T20:03:41.526Z,8.37
2018-11-02T20:06:09.755Z,7.43
2018-11-02T20:08:37.974Z,8.57
2018-11-02T20:11:06.186Z,8.80
2018-11-02T20:13:34.450Z,8.77
2018-11-02T20:16:02.674Z,7.53
2018-11-02T20:18:30.910Z,7.60
2018-11-02T20:20:59.132Z,10.40
2018-11-02T20:23:27.420Z,8.43
2018-11-02T20:25:55.802Z,9.43
2018-11-02T20:28:24.207Z,11.63
2018-11-02T20:30:52.453Z,9.57
2018-11-02T20:33:20.704Z,8.63
2018-11-02T20:35:48.898Z,9.53
2018-11-02T20:38:17.111Z,7.23
2018-11-02T20:40:45.383Z,8.97
2018-11-02T20:43:13.618Z,10.67
2018-11-02T20:45:41.818Z,9.47
2018-11-02T20:48:10.040Z,6.77
2018-11-02T20:50:38.486Z,9.03
2018-11-02T20:53:06.741Z,8.00
2018-11-02T20:55:34.964Z,9.80
2018-11-02T20:58:03.174Z,7.43
2018-11-02T21:00:31.388Z,6.77
2018-11-02T21:02:59.623Z,6.73
2018-11-02T21:05:27.910Z,7.90
2018-11-02T21:07:56.262Z,44.37
2018-11-02T21:10:24.449Z,22.07
2018-11-02T21:12:53.475Z,6.37
2018-11-02T21:15:23.023Z,8.17
2018-11-02T21:17:51.725Z,8.63
2018-11-02T21:20:21.252Z,12.33
2018-11-02T21:22:49.416Z,8.97
2018-11-02T21:25:17.593Z,8.23
2018-11-02T21:27:46.378Z,8.97
2018-11-02T21:30:16.490Z,7.40
2018-11-02T21:32:45.585Z,7.73
2018-11-02T21:35:14.275Z,8.23
2018-11-02T21:37:42.508Z,8.80
2018-11-02T21:40:15.105Z,8.13
2018-11-02T21:42:43.432Z,8.87
2018-11-02T21:45:12.686Z,25.90
2018-11-02T21:47:40.890Z,9.27
2018-11-02T21:50:09.860Z,9.90
2018-11-02T21:52:38.076Z,15.10
2018-11-02T21:55:06.490Z,13.43
2018-11-02T21:57:34.698Z,9.10
2018-11-02T22:00:02.954Z,12.60
2018-11-02T22:02:31.560Z,9.60
2018-11-02T22:04:59.750Z,9.33
2018-11-02T22:07:27.967Z,8.90
2018-11-02T22:09:56.180Z,8.63
2018-11-02T22:12:24.548Z,10.93
2018-11-02T22:14:52.833Z,10.63
2018-11-02T22:17:21.037Z,10.40
2018-11-02T22:19:49.269Z,14.53
2018-11-02T22:22:17.477Z,10.00
2018-11-02T22:24:45.751Z,14.33
2018-11-02T22:27:14.106Z,12.33
2018-11-02T22:29:42.221Z,10.93
2018-11-02T22:32:10.482Z,9.30
2018-11-02T22:34:38.742Z,10.97
2018-11-02T22:37:07.082Z,23.27
2018-11-02T22:39:35.321Z,11.43
2018-11-02T22:42:03.598Z,17.07
2018-11-02T22:44:31.842Z,13.50
2018-11-02T22:47:00.046Z,13.87
2018-11-02T22:49:28.268Z,19.93
2018-11-02T22:51:56.601Z,13.80
2018-11-02T22:54:24.798Z,14.03
2018-11-02T22:56:53.028Z,14.00
2018-11-02T22:59:21.238Z,12.90
2018-11-02T23:01:49.450Z,13.07
2018-11-02T23:04:17.652Z,14.33
2018-11-02T23:06:45.848Z,12.57
2018-11-02T23:09:14.044Z,10.63
2018-11-02T23:11:42.253Z,12.43
2018-11-02T23:14:10.510Z,11.87
2018-11-02T23:16:38.718Z,13.47
2018-11-02T23:19:06.973Z,12.00
2018-11-02T23:21:35.204Z,10.50
2018-11-02T23:24:03.433Z,10.67
2018-11-02T23:26:31.717Z,14.83
2018-11-02T23:29:00.003Z,16.47
2018-11-02T23:31:28.209Z,13.53
2018-11-02T23:33:56.461Z,11.83
2018-11-02T23:36:24.706Z,10.57
2018-11-02T23:38:52.921Z,15.67
2018-11-02T23:41:21.119Z,11.30
2018-11-02T23:43:49.349Z,11.10
2018-11-02T23:46:17.558Z,13.43
2018-11-02T23:48:45.808Z,11.80
2018-11-02T23:51:14.077Z,10.93
2018-11-02T23:53:42.294Z,15.33
2018-11-02T23:56:10.558Z,14.37
2018-11-02T23:58:38.850Z,14.30
